createdAt,value
2022-12-24T00:02:40.991Z,87.6
2022-12-24T00:07:42.074Z,87.7
2022-12-24T00:12:41.614Z,87.7
2022-12-24T00:17:44.815Z,87.7
2022-12-24T00:22:44.789Z,87.7
2022-12-24T00:27:44.942Z,87.7
2022-12-24T00:32:44.896Z,87.7
2022-12-24T00:37:44.139Z,87.6
2022-12-24T00:42:44.926Z,87.6
2022-12-24T00:47:44.115Z,87.6
2022-12-24T00:52:44.155Z,87.7
2022-12-24T00:57:44.812Z,87.7
2022-12-24T01:02:45.271Z,87.8
2022-12-24T01:07:44.464Z,87.8
2022-12-24T01:12:44.075Z,87.7
2022-12-24T01:17:44.069Z,87.8
2022-12-24T01:22:44.763Z,87.8
2022-12-24T01:27:44.906Z,87.8
2022-12-24T01:32:44.316Z,87.7
2022-12-24T01:37:44.814Z,87.8
2022-12-24T01:42:43.951Z,87.7
2022-12-24T01:47:44.003Z,87.7
2022-12-24T01:52:44.190Z,87.7
2022-12-24T01:57:44.034Z,87.7
2022-12-24T02:02:44.086Z,87.7
2022-12-24T02:07:44.109Z,87.7
2022-12-24T02:12:44.182Z,87.7
2022-12-24T02:17:44.001Z,87.7
2022-12-24T02:22:44.130Z,87.7
2022-12-24T02:27:44.011Z,87.7
2022-12-24T02:32:45.854Z,87.7
2022-12-24T02:37:44.487Z,87.7
2022-12-24T02:42:44.611Z,87.7
2022-12-24T02:47:43.867Z,87.8
2022-12-24T02:52:43.872Z,87.8
2022-12-24T02:57:43.920Z,87.8
2022-12-24T03:02:44.001Z,87.9
2022-12-24T03:07:44.006Z,87.9
2022-12-24T03:12:43.856Z,87.9
2022-12-24T03:17:43.860Z,87.8
2022-12-24T03:22:43.992Z,87.8
2022-12-24T03:27:43.848Z,87.8
2022-12-24T03:32:43.832Z,87.8
2022-12-24T03:37:43.986Z,87.8
2022-12-24T03:42:43.850Z,87.8
2022-12-24T03:47:43.899Z,87.9
2022-12-24T03:52:44.154Z,87.9
2022-12-24T03:57:43.724Z,88.0
2022-12-24T04:02:44.000Z,88.1
2022-12-24T04:07:43.975Z,88.2
2022-12-24T04:12:43.907Z,88.2
2022-12-24T04:17:43.736Z,88.4
2022-12-24T04:22:44.235Z,88.4
2022-12-24T04:27:43.962Z,88.4
2022-12-24T04:32:43.697Z,88.4
2022-12-24T04:37:43.767Z,88.4
2022-12-24T04:42:43.886Z,88.4
2022-12-24T04:47:43.814Z,88.4
2022-12-24T04:52:43.630Z,88.4
2022-12-24T04:57:47.234Z,88.4
2022-12-24T05:02:44.166Z,88.5
2022-12-24T05:07:43.937Z,88.4
2022-12-24T05:12:43.644Z,88.5
2022-12-24T05:17:43.828Z,88.4
2022-12-24T05:22:43.847Z,88.3
2022-12-24T05:27:50.670Z,88.3
2022-12-24T05:32:43.912Z,88.3
2022-12-24T05:37:43.548Z,88.4
2022-12-24T05:42:43.711Z,88.4
2022-12-24T05:47:43.882Z,88.3
2022-12-24T05:52:43.903Z,88.3
2022-12-24T05:57:43.688Z,88.4
2022-12-24T06:02:43.772Z,88.3
2022-12-24T06:07:43.519Z,88.4
2022-12-24T06:12:43.591Z,88.3
2022-12-24T06:17:43.558Z,88.4
2022-12-24T06:22:43.491Z,88.3
2022-12-24T06:27:43.473Z,88.4
2022-12-24T06:32:43.537Z,88.5
2022-12-24T06:37:44.307Z,88.5
2022-12-24T06:42:43.541Z,88.5
2022-12-24T06:47:43.583Z,88.5
2022-12-24T06:52:43.916Z,88.5
2022-12-24T06:57:43.644Z,88.5
2022-12-24T07:02:43.522Z,88.6
2022-12-24T07:07:43.836Z,88.6
2022-12-24T07:12:43.576Z,88.6
2022-12-24T07:17:43.766Z,88.6
2022-12-24T07:22:43.802Z,88.6
2022-12-24T07:27:45.391Z,88.6
2022-12-24T07:32:43.454Z,88.7
2022-12-24T07:37:43.474Z,88.7
2022-12-24T07:42:43.356Z,88.9
2022-12-24T07:47:43.423Z,89.1
2022-12-24T07:52:43.536Z,89.2
2022-12-24T07:57:43.399Z,89.3
2022-12-24T08:02:43.574Z,89.3
2022-12-24T08:07:43.515Z,89.2
2022-12-24T08:12:43.336Z,89.3
2022-12-24T08:17:45.696Z,89.2
2022-12-24T08:22:45.062Z,89.1
2022-12-24T08:27:45.690Z,89.0
2022-12-24T08:32:46.391Z,88.9
2022-12-24T08:37:46.842Z,88.9
2022-12-24T08:42:47.613Z,88.9
2022-12-24T08:47:43.285Z,89.0
2022-12-24T08:52:51.207Z,89.0
2022-12-24T08:57:49.550Z,89.1
2022-12-24T09:02:43.502Z,89.0
2022-12-24T09:07:43.323Z,89.0
2022-12-24T09:12:43.452Z,88.9
2022-12-24T09:17:43.386Z,89.0
2022-12-24T09:22:43.288Z,88.9
2022-12-24T09:27:43.304Z,89.0
2022-12-24T09:32:43.338Z,89.0
2022-12-24T09:37:43.173Z,89.0
2022-12-24T09:42:43.181Z,88.8
2022-12-24T09:47:43.286Z,88.8
2022-12-24T09:52:43.141Z,88.9
2022-12-24T09:57:43.144Z,89.0
2022-12-24T10:02:43.602Z,88.9
2022-12-24T10:07:43.130Z,88.9
2022-12-24T10:12:47.699Z,88.9
2022-12-24T10:17:44.188Z,88.9
2022-12-24T10:22:43.086Z,88.8
2022-12-24T10:27:43.205Z,88.7
2022-12-24T10:32:43.328Z,88.7
2022-12-24T10:37:43.200Z,88.8
2022-12-24T10:42:48.382Z,88.7
2022-12-24T10:47:43.273Z,88.8
2022-12-24T10:52:43.064Z,88.8
2022-12-24T10:57:43.880Z,88.8
2022-12-24T11:02:43.332Z,88.9
2022-12-24T11:07:43.230Z,88.9
2022-12-24T11:12:43.159Z,88.9
2022-12-24T11:17:43.048Z,88.9
2022-12-24T11:22:43.004Z,88.9
2022-12-24T11:27:43.660Z,88.9
2022-12-24T11:32:45.265Z,88.9
2022-12-24T11:37:43.659Z,88.9
2022-12-24T11:42:42.978Z,89.0
2022-12-24T11:47:42.992Z,89.0
2022-12-24T11:52:43.100Z,89.0
2022-12-24T11:57:42.972Z,88.9
2022-12-24T12:02:43.017Z,88.9
2022-12-24T12:07:43.124Z,88.8
2022-12-24T12:12:43.167Z,88.8
2022-12-24T12:17:42.953Z,88.8
2022-12-24T12:22:43.219Z,88.7
2022-12-24T12:27:42.927Z,88.7
2022-12-24T12:32:43.173Z,88.7
2022-12-24T12:37:43.107Z,88.6
2022-12-24T12:42:42.864Z,88.6
2022-12-24T12:47:42.918Z,88.6
2022-12-24T12:52:43.651Z,88.6
2022-12-24T12:57:43.042Z,88.6
2022-12-24T13:02:42.919Z,88.7
2022-12-24T13:07:43.115Z,88.7
2022-12-24T13:12:43.033Z,88.7
2022-12-24T13:17:42.933Z,88.7
2022-12-24T13:22:42.816Z,88.7
2022-12-24T13:27:43.532Z,88.7
2022-12-24T13:32:42.757Z,88.6
2022-12-24T13:37:42.873Z,88.6
2022-12-24T13:42:43.479Z,88.6
2022-12-24T13:47:44.330Z,88.7
2022-12-24T13:52:42.944Z,88.7
2022-12-24T13:57:43.541Z,88.7
2022-12-24T14:02:48.161Z,88.7
2022-12-24T14:07:45.368Z,88.7
2022-12-24T14:12:43.862Z,88.7
2022-12-24T14:17:42.678Z,88.7
2022-12-24T14:22:43.531Z,88.7
2022-12-24T14:27:42.742Z,88.8
2022-12-24T14:32:42.753Z,88.8
2022-12-24T14:37:42.943Z,88.8
2022-12-24T14:42:42.777Z,88.8
2022-12-24T14:47:42.812Z,88.8
2022-12-24T14:53:04.774Z,88.8
2022-12-24T14:57:42.593Z,88.8
2022-12-24T15:02:42.929Z,88.8
2022-12-24T15:07:47.545Z,88.9
2022-12-24T15:12:43.129Z,88.8
2022-12-24T15:17:42.638Z,88.8
2022-12-24T15:22:42.807Z,88.8
2022-12-24T15:27:43.364Z,88.8
2022-12-24T15:32:43.268Z,88.9
2022-12-24T15:37:42.577Z,88.9
2022-12-24T15:42:42.838Z,88.9
2022-12-24T15:47:43.183Z,88.8
2022-12-24T15:52:42.513Z,88.8
2022-12-24T15:57:42.877Z,88.8
2022-12-24T16:02:43.196Z,88.8
2022-12-24T16:07:42.682Z,88.8
2022-12-24T16:12:42.478Z,88.7
2022-12-24T16:17:43.190Z,88.7
2022-12-24T16:22:42.782Z,88.7
2022-12-24T16:27:42.529Z,88.6
2022-12-24T16:32:42.469Z,88.7
2022-12-24T16:37:42.517Z,88.6
2022-12-24T16:42:42.648Z,88.6
2022-12-24T16:47:43.656Z,88.5
2022-12-24T16:52:42.519Z,88.5
2022-12-24T16:57:42.446Z,88.4
2022-12-24T17:02:43.115Z,88.4
2022-12-24T17:07:44.083Z,88.4
2022-12-24T17:12:42.376Z,88.4
2022-12-24T17:17:42.464Z,88.3
2022-12-24T17:22:42.574Z,88.3
2022-12-24T17:27:42.518Z,88.3
2022-12-24T17:32:42.399Z,88.4
2022-12-24T17:37:42.488Z,88.4
2022-12-24T17:42:42.507Z,88.4
2022-12-24T17:47:42.770Z,88.5
2022-12-24T17:52:42.432Z,88.5
2022-12-24T17:57:42.430Z,88.5
2022-12-24T18:02:42.847Z,88.5
2022-12-24T18:07:42.384Z,88.4
2022-12-24T18:12:42.263Z,88.4
2022-12-24T18:17:42.624Z,88.4
2022-12-24T18:27:42.233Z,88.3
2022-12-24T18:32:42.337Z,88.3
2022-12-24T18:37:44.561Z,88.2
2022-12-24T18:42:42.255Z,88.2
2022-12-24T18:47:42.428Z,88.2
2022-12-24T18:52:42.357Z,88.3
2022-12-24T18:57:42.440Z,88.2
2022-12-24T19:02:42.576Z,88.2
2022-12-24T19:07:42.331Z,88.2
2022-12-24T19:12:42.361Z,88.2
2022-12-24T19:17:42.406Z,88.2
2022-12-24T19:22:42.525Z,88.2
2022-12-24T19:27:42.115Z,88.2
2022-12-24T19:32:42.302Z,88.2
2022-12-24T19:37:42.899Z,88.3
2022-12-24T19:42:42.332Z,88.5
2022-12-24T19:47:42.305Z,88.6
2022-12-24T19:52:42.180Z,88.5
2022-12-24T19:57:42.203Z,88.4
2022-12-24T20:07:42.346Z,88.4
2022-12-24T20:12:43.214Z,88.2
2022-12-24T20:17:42.098Z,88.2
2022-12-24T20:22:42.583Z,88.1
2022-12-24T20:27:42.351Z,88.1
2022-12-24T20:32:42.101Z,88.2
2022-12-24T20:37:46.228Z,88.3
2022-12-24T20:42:42.377Z,88.3
2022-12-24T20:47:42.262Z,88.2
2022-12-24T20:52:42.049Z,88.1
2022-12-24T20:57:42.336Z,88.2
2022-12-24T21:02:45.047Z,88.2
2022-12-24T21:07:43.014Z,88.1
2022-12-24T21:12:42.155Z,88.0
2022-12-24T21:17:42.701Z,88.2
2022-12-24T21:22:42.752Z,88.3
2022-12-24T21:27:42.217Z,88.2
2022-12-24T21:32:42.050Z,88.3
2022-12-24T21:37:42.063Z,88.3
2022-12-24T21:42:41.921Z,88.2
2022-12-24T21:47:42.684Z,88.1
2022-12-24T21:52:42.820Z,88.1
2022-12-24T21:57:42.599Z,88.3
2022-12-24T22:02:44.121Z,88.0
2022-12-24T22:07:42.609Z,87.8
2022-12-24T22:12:41.963Z,87.8
2022-12-24T22:17:42.549Z,88.0
2022-12-24T22:22:41.960Z,88.2
2022-12-24T22:27:42.076Z,88.1
2022-12-24T22:32:45.440Z,88.2
2022-12-24T22:37:42.600Z,88.3
2022-12-24T22:42:42.594Z,87.9
2022-12-24T22:47:42.602Z,88.1
2022-12-24T22:52:42.651Z,88.3
2022-12-24T22:57:41.800Z,88.0
2022-12-24T23:07:41.820Z,87.9
2022-12-24T23:12:42.568Z,87.9
2022-12-24T23:17:42.427Z,87.9
2022-12-24T23:22:41.933Z,87.9
2022-12-24T23:27:41.923Z,87.8
2022-12-24T23:32:41.711Z,87.8
2022-12-24T23:37:41.690Z,87.8
2022-12-24T23:42:41.715Z,87.9
2022-12-24T23:47:41.708Z,88.0
2022-12-24T23:52:41.975Z,88.1
2022-12-24T23:57:41.732Z,87.9
